createdAt,value
2023-03-06T00:00:55.275Z,1.17
2023-03-06T00:03:40.097Z,1.23
2023-03-06T00:06:25.748Z,1.20
2023-03-06T00:09:10.982Z,1.20
2023-03-06T00:11:56.149Z,1.47
2023-03-06T00:14:41.029Z,1.10
2023-03-06T00:17:28.454Z,1.33
2023-03-06T00:20:14.124Z,1.00
2023-03-06T00:22:59.591Z,1.10
2023-03-06T00:25:45.598Z,1.30
2023-03-06T00:28:31.490Z,1.20
2023-03-06T00:31:16.617Z,1.07
2023-03-06T00:34:02.900Z,1.27
2023-03-06T00:36:47.847Z,1.40
2023-03-06T00:39:33.409Z,1.67
2023-03-06T00:42:19.580Z,1.57
2023-03-06T00:45:05.261Z,1.67
2023-03-06T00:47:50.788Z,1.60
2023-03-06T00:50:36.216Z,1.23
2023-03-06T00:53:21.365Z,1.60
2023-03-06T00:56:09.028Z,1.43
2023-03-06T00:58:54.176Z,1.40
2023-03-06T01:01:39.459Z,1.23
2023-03-06T01:04:25.525Z,1.30
2023-03-06T01:07:10.959Z,1.30
2023-03-06T01:09:56.243Z,1.77
2023-03-06T01:12:41.668Z,1.17
2023-03-06T01:15:27.139Z,1.10
2023-03-06T01:18:12.633Z,1.73
2023-03-06T01:20:57.807Z,1.33
2023-03-06T01:23:43.433Z,1.17
2023-03-06T01:26:28.943Z,1.47
2023-03-06T01:29:13.926Z,1.20
2023-03-06T01:31:59.577Z,1.17
2023-03-06T01:34:44.575Z,1.53
2023-03-06T01:37:30.132Z,1.20
2023-03-06T01:40:15.777Z,1.33
2023-03-06T01:43:29.414Z,1.43
2023-03-06T01:46:33.824Z,1.17
2023-03-06T01:49:22.427Z,1.40
2023-03-06T01:52:15.693Z,1.13
2023-03-06T01:55:13.222Z,1.60
2023-03-06T01:58:03.405Z,1.50
2023-03-06T02:00:48.723Z,1.40
2023-03-06T02:03:34.178Z,1.37
2023-03-06T02:06:21.700Z,1.20
2023-03-06T02:09:07.229Z,1.23
2023-03-06T02:11:52.405Z,1.20
2023-03-06T02:14:39.165Z,1.23
2023-03-06T02:17:25.493Z,1.37
2023-03-06T02:20:47.666Z,1.33
2023-03-06T02:23:58.545Z,1.50
2023-03-06T02:26:45.148Z,1.03
2023-03-06T02:29:30.768Z,1.13
2023-03-06T02:32:19.668Z,1.43
2023-03-06T02:35:07.117Z,1.47
2023-03-06T02:37:53.595Z,1.30
2023-03-06T02:40:38.766Z,1.17
2023-03-06T02:43:28.862Z,1.20
2023-03-06T02:46:15.235Z,1.20
2023-03-06T02:49:00.763Z,1.27
2023-03-06T02:51:45.799Z,1.30
2023-03-06T02:54:30.947Z,1.00
2023-03-06T02:57:16.471Z,1.17
2023-03-06T03:00:01.648Z,1.50
2023-03-06T03:02:47.185Z,1.30
2023-03-06T03:05:33.040Z,1.10
2023-03-06T03:08:27.184Z,1.30
2023-03-06T03:11:16.442Z,1.27
2023-03-06T03:14:02.946Z,1.20
2023-03-06T03:16:48.648Z,1.40
2023-03-06T03:19:34.657Z,1.40
2023-03-06T03:22:20.107Z,1.37
2023-03-06T03:25:05.993Z,1.17
2023-03-06T03:27:51.597Z,1.40
2023-03-06T03:30:39.662Z,1.60
2023-03-06T03:33:25.408Z,1.00
2023-03-06T03:36:11.246Z,2.07
2023-03-06T03:39:00.169Z,1.20
2023-03-06T03:41:46.115Z,1.17
2023-03-06T03:44:31.659Z,1.20
2023-03-06T03:47:18.993Z,1.30
2023-03-06T03:50:05.078Z,1.20
2023-03-06T03:52:50.489Z,1.10
2023-03-06T03:55:36.579Z,1.33
2023-03-06T03:58:21.662Z,1.30
2023-03-06T04:01:08.259Z,1.50
2023-03-06T04:03:54.545Z,1.57
2023-03-06T04:06:40.029Z,1.37
2023-03-06T04:09:25.870Z,1.90
2023-03-06T04:12:11.079Z,1.20
2023-03-06T04:14:56.493Z,1.33
2023-03-06T04:17:41.927Z,1.13
2023-03-06T04:20:32.515Z,1.00
2023-03-06T04:23:19.337Z,1.30
2023-03-06T04:26:05.257Z,1.20
2023-03-06T04:28:51.594Z,1.20
2023-03-06T04:31:39.344Z,1.13
2023-03-06T04:34:25.112Z,1.27
2023-03-06T04:37:20.088Z,1.23
2023-03-06T04:40:06.316Z,1.10
2023-03-06T04:42:52.035Z,1.10
2023-03-06T04:45:37.355Z,1.00
2023-03-06T04:48:22.592Z,1.40
2023-03-06T04:51:08.454Z,1.00
2023-03-06T04:53:53.981Z,1.00
2023-03-06T04:56:39.330Z,1.23
2023-03-06T04:59:24.576Z,1.13
2023-03-06T05:02:09.898Z,1.27
2023-03-06T05:04:55.436Z,1.10
2023-03-06T05:07:41.340Z,1.70
2023-03-06T05:10:26.170Z,1.50
2023-03-06T05:13:11.464Z,1.57
2023-03-06T05:16:05.324Z,1.60
2023-03-06T05:18:50.901Z,1.07
2023-03-06T05:21:35.761Z,1.50
2023-03-06T05:24:20.855Z,1.50
2023-03-06T05:27:05.767Z,1.20
2023-03-06T05:29:50.816Z,1.30
2023-03-06T05:32:36.008Z,1.60
2023-03-06T05:35:23.246Z,1.50
2023-03-06T05:38:08.654Z,1.27
2023-03-06T05:40:53.892Z,1.47
2023-03-06T05:43:39.090Z,1.47
2023-03-06T05:46:25.284Z,1.10
2023-03-06T05:49:10.214Z,1.40
2023-03-06T05:51:54.981Z,1.53
2023-03-06T05:54:39.877Z,1.60
2023-03-06T05:57:25.023Z,1.60
2023-03-06T06:00:10.951Z,1.40
2023-03-06T06:03:01.258Z,1.23
2023-03-06T06:05:46.460Z,1.53
2023-03-06T06:08:31.886Z,1.40
2023-03-06T06:11:18.436Z,1.67
2023-03-06T06:14:03.581Z,1.53
2023-03-06T06:16:49.309Z,1.40
2023-03-06T06:19:34.268Z,1.07
2023-03-06T06:22:19.612Z,1.50
2023-03-06T06:25:06.450Z,1.50
2023-03-06T06:27:54.966Z,1.30
2023-03-06T06:30:40.282Z,1.30
2023-03-06T06:33:25.666Z,1.53
2023-03-06T06:36:21.055Z,1.50
2023-03-06T06:39:08.160Z,1.53
2023-03-06T06:42:14.624Z,1.20
2023-03-06T06:44:58.679Z,1.23
2023-03-06T06:47:44.507Z,1.43
2023-03-06T06:50:29.867Z,1.67
2023-03-06T06:53:15.070Z,1.70
2023-03-06T06:56:00.362Z,1.40
2023-03-06T06:58:45.395Z,1.50
2023-03-06T07:01:30.886Z,1.60
2023-03-06T07:04:16.334Z,1.43
2023-03-06T07:07:02.223Z,1.30
2023-03-06T07:09:47.086Z,1.40
2023-03-06T07:12:32.868Z,1.50
2023-03-06T07:15:18.891Z,1.60
2023-03-06T07:18:04.037Z,1.43
2023-03-06T07:20:49.133Z,1.30
2023-03-06T07:23:34.595Z,1.70
2023-03-06T07:26:19.745Z,1.57
2023-03-06T07:29:05.147Z,1.27
2023-03-06T07:31:49.998Z,1.30
2023-03-06T07:34:35.004Z,2.10
2023-03-06T07:37:20.325Z,1.17
2023-03-06T07:40:06.198Z,1.53
2023-03-06T07:43:06.231Z,1.40
2023-03-06T07:46:01.601Z,1.63
2023-03-06T07:48:46.490Z,1.60
2023-03-06T07:51:31.584Z,1.30
2023-03-06T07:54:16.725Z,1.30
2023-03-06T07:57:02.266Z,1.40
2023-03-06T07:59:47.347Z,1.33
2023-03-06T08:02:32.259Z,1.40
2023-03-06T08:05:17.805Z,1.70
2023-03-06T08:08:02.913Z,1.50
2023-03-06T08:10:49.625Z,1.57
2023-03-06T08:13:35.128Z,2.40
2023-03-06T08:16:21.277Z,2.70
2023-03-06T08:19:06.619Z,3.33
2023-03-06T08:21:51.825Z,3.00
2023-03-06T08:24:37.107Z,2.60
2023-03-06T08:27:23.071Z,2.70
2023-03-06T08:30:08.867Z,2.43
2023-03-06T08:32:53.783Z,2.57
2023-03-06T08:35:38.749Z,2.60
2023-03-06T08:38:23.925Z,2.20
2023-03-06T08:41:09.717Z,2.60
2023-03-06T08:43:54.641Z,2.50
2023-03-06T08:46:40.202Z,2.17
2023-03-06T08:49:25.448Z,2.47
2023-03-06T08:52:11.111Z,2.17
2023-03-06T08:54:57.427Z,2.40
2023-03-06T08:57:42.301Z,2.10
2023-03-06T09:00:27.387Z,2.30
2023-03-06T09:03:12.502Z,1.80
2023-03-06T09:05:57.442Z,1.90
2023-03-06T09:08:44.334Z,2.27
2023-03-06T09:11:29.900Z,2.13
2023-03-06T09:14:14.787Z,2.20
2023-03-06T09:17:00.171Z,1.90
2023-03-06T09:19:46.331Z,2.30
2023-03-06T09:22:32.118Z,2.17
2023-03-06T09:25:20.373Z,2.00
2023-03-06T09:28:11.800Z,1.80
2023-03-06T09:30:58.443Z,2.17
2023-03-06T09:33:43.974Z,1.80
2023-03-06T09:36:29.048Z,2.33
2023-03-06T09:39:13.844Z,1.87
2023-03-06T09:41:59.505Z,2.20
2023-03-06T09:44:52.240Z,2.10
2023-03-06T09:47:59.956Z,2.10
2023-03-06T09:50:52.152Z,2.43
2023-03-06T09:53:44.177Z,1.90
2023-03-06T09:56:33.108Z,2.10
2023-03-06T09:59:22.886Z,1.93
2023-03-06T10:02:19.532Z,1.77
2023-03-06T10:05:10.695Z,1.90
2023-03-06T10:08:06.457Z,2.00
2023-03-06T10:11:03.431Z,2.00
2023-03-06T10:13:53.797Z,2.30
2023-03-06T10:16:38.812Z,2.00
2023-03-06T10:19:31.614Z,1.80
2023-03-06T10:22:29.018Z,2.33
2023-03-06T10:25:27.994Z,5.73
2023-03-06T10:28:18.587Z,4.10
2023-03-06T10:31:16.568Z,2.23
2023-03-06T10:34:22.868Z,6.70
2023-03-06T10:37:22.419Z,3.67
2023-03-06T10:40:20.755Z,7.03
2023-03-06T10:43:12.406Z,4.63
2023-03-06T10:45:57.900Z,3.53
2023-03-06T10:48:43.209Z,5.07
2023-03-06T10:51:29.675Z,3.83
2023-03-06T10:54:14.757Z,3.90
2023-03-06T10:57:19.395Z,2.17
2023-03-06T11:00:22.775Z,2.27
2023-03-06T11:03:13.745Z,3.13
2023-03-06T11:06:10.846Z,2.90
2023-03-06T11:09:33.227Z,3.67
2023-03-06T11:12:33.297Z,1.77
2023-03-06T11:15:23.679Z,1.80
2023-03-06T11:18:08.959Z,1.60
2023-03-06T11:20:55.736Z,1.97
2023-03-06T11:23:46.451Z,1.83
2023-03-06T11:26:58.318Z,4.50
2023-03-06T11:29:50.359Z,3.87
2023-03-06T11:32:42.880Z,1.70
2023-03-06T11:35:35.811Z,1.67
2023-03-06T11:38:54.612Z,2.73
2023-03-06T11:41:42.513Z,1.70
2023-03-06T11:44:49.280Z,1.93
2023-03-06T11:48:01.676Z,1.80
2023-03-06T11:50:50.670Z,1.90
2023-03-06T11:53:42.863Z,1.83
2023-03-06T11:56:57.624Z,1.73
2023-03-06T12:00:28.305Z,1.60
2023-03-06T12:03:35.806Z,2.00
2023-03-06T12:06:39.453Z,1.90
2023-03-06T12:09:33.306Z,1.50
2023-03-06T12:12:29.589Z,1.87
2023-03-06T12:15:23.500Z,1.70
2023-03-06T12:18:19.375Z,1.60
2023-03-06T12:21:24.030Z,1.70
2023-03-06T12:24:44.021Z,2.17
2023-03-06T12:27:42.098Z,1.73
2023-03-06T12:30:54.378Z,1.80
2023-03-06T12:34:13.979Z,1.67
2023-03-06T12:37:36.829Z,1.97
2023-03-06T12:40:44.312Z,1.60
2023-03-06T12:44:04.595Z,1.97
2023-03-06T12:46:57.756Z,1.97
2023-03-06T12:49:48.549Z,1.80
2023-03-06T12:52:34.944Z,1.90
2023-03-06T12:55:24.944Z,1.50
2023-03-06T12:58:29.584Z,1.50
2023-03-06T13:01:36.617Z,2.00
2023-03-06T13:04:33.937Z,1.60
2023-03-06T13:07:38.159Z,1.80
2023-03-06T13:10:27.938Z,1.80
2023-03-06T13:13:51.348Z,2.57
2023-03-06T13:16:36.381Z,1.80
2023-03-06T13:19:25.007Z,1.67
2023-03-06T13:22:15.558Z,1.87
2023-03-06T13:25:26.972Z,1.73
2023-03-06T13:28:23.906Z,1.40
2023-03-06T13:31:21.418Z,1.70
2023-03-06T13:34:31.152Z,1.67
2023-03-06T13:37:25.208Z,1.80
2023-03-06T13:40:10.142Z,1.70
2023-03-06T13:43:01.720Z,1.70
2023-03-06T13:45:48.132Z,1.73
2023-03-06T13:48:44.702Z,1.67
2023-03-06T13:51:35.896Z,1.80
2023-03-06T13:54:33.007Z,1.70
2023-03-06T13:57:25.165Z,1.63
2023-03-06T14:00:16.562Z,2.33
2023-03-06T14:03:10.444Z,2.20
2023-03-06T14:05:55.659Z,1.80
2023-03-06T14:08:41.102Z,1.70
2023-03-06T14:11:26.901Z,1.70
2023-03-06T14:14:12.380Z,1.70
2023-03-06T14:16:58.486Z,1.20
2023-03-06T14:19:43.827Z,1.70
2023-03-06T14:22:29.005Z,1.60
2023-03-06T14:25:25.409Z,1.50
2023-03-06T14:28:28.656Z,1.43
2023-03-06T14:31:18.450Z,2.13
2023-03-06T14:34:07.219Z,2.37
2023-03-06T14:36:54.907Z,1.63
2023-03-06T14:39:43.023Z,1.70
2023-03-06T14:42:29.479Z,1.60
2023-03-06T14:45:18.688Z,1.50
2023-03-06T14:48:06.171Z,1.63
2023-03-06T14:50:56.859Z,2.03
2023-03-06T14:53:44.567Z,1.70
2023-03-06T14:56:41.930Z,1.30
2023-03-06T14:59:30.475Z,1.73
2023-03-06T15:02:22.724Z,1.57
2023-03-06T15:05:25.510Z,2.00
2023-03-06T15:08:14.159Z,1.47
2023-03-06T15:11:01.981Z,1.50
2023-03-06T15:14:03.590Z,1.50
2023-03-06T15:16:48.488Z,1.40
2023-03-06T15:19:40.342Z,1.90
2023-03-06T15:22:40.558Z,1.40
2023-03-06T15:25:29.959Z,1.90
2023-03-06T15:28:32.642Z,1.67
2023-03-06T15:31:30.983Z,1.50
2023-03-06T15:34:25.020Z,1.53
2023-03-06T15:37:26.983Z,1.60
2023-03-06T15:40:17.821Z,1.57
2023-03-06T15:43:02.842Z,1.20
2023-03-06T15:45:47.744Z,1.30
2023-03-06T15:48:35.236Z,1.10
2023-03-06T15:51:20.758Z,1.43
2023-03-06T15:54:12.364Z,1.30
2023-03-06T15:56:57.814Z,1.40
2023-03-06T15:59:45.156Z,1.60
2023-03-06T16:02:30.303Z,1.53
2023-03-06T16:05:17.042Z,1.70
2023-03-06T16:08:02.383Z,1.50
2023-03-06T16:10:48.103Z,1.50
2023-03-06T16:13:33.604Z,1.40
2023-03-06T16:16:22.443Z,1.40
2023-03-06T16:19:25.269Z,1.30
2023-03-06T16:22:11.868Z,1.33
2023-03-06T16:24:57.236Z,1.90
2023-03-06T16:27:46.005Z,1.43
2023-03-06T16:30:33.890Z,1.73
2023-03-06T16:33:19.519Z,1.20
2023-03-06T16:36:18.402Z,1.27
2023-03-06T16:39:04.320Z,1.60
2023-03-06T16:41:49.927Z,1.70
2023-03-06T16:44:35.400Z,1.57
2023-03-06T16:47:20.399Z,1.77
2023-03-06T16:50:06.016Z,1.60
2023-03-06T16:52:53.216Z,1.60
2023-03-06T16:55:38.156Z,1.50
2023-03-06T16:58:23.358Z,1.90
2023-03-06T17:01:09.966Z,1.70
2023-03-06T17:03:55.410Z,1.73
2023-03-06T17:06:41.764Z,1.57
2023-03-06T17:09:26.736Z,1.83
2023-03-06T17:12:11.827Z,1.97
2023-03-06T17:14:56.816Z,1.70
2023-03-06T17:17:41.997Z,1.77
2023-03-06T17:20:29.308Z,1.80
2023-03-06T17:23:14.293Z,2.00
2023-03-06T17:26:08.344Z,1.60
2023-03-06T17:28:55.814Z,1.77
2023-03-06T17:31:40.984Z,2.80
2023-03-06T17:34:26.232Z,1.87
2023-03-06T17:37:11.332Z,1.80
2023-03-06T17:39:56.767Z,1.40
2023-03-06T17:42:41.674Z,2.43
2023-03-06T17:45:28.982Z,1.70
2023-03-06T17:48:14.381Z,1.90
2023-03-06T17:50:59.959Z,1.80
2023-03-06T17:53:45.555Z,1.57
2023-03-06T17:56:30.888Z,1.80
2023-03-06T17:59:16.081Z,1.83
2023-03-06T18:02:02.440Z,1.80
2023-03-06T18:04:47.915Z,2.00
2023-03-06T18:07:33.197Z,1.77
2023-03-06T18:10:18.832Z,2.13
2023-03-06T18:13:04.107Z,1.63
2023-03-06T18:15:49.288Z,1.87
2023-03-06T18:18:34.956Z,1.67
2023-03-06T18:21:21.336Z,1.90
2023-03-06T18:24:07.000Z,1.80
2023-03-06T18:26:52.320Z,1.80
2023-03-06T18:29:37.289Z,1.60
2023-03-06T18:32:22.362Z,1.90
2023-03-06T18:35:09.403Z,1.67
2023-03-06T18:37:54.421Z,1.83
2023-03-06T18:40:41.669Z,1.50
2023-03-06T18:43:26.894Z,1.77
2023-03-06T18:46:12.383Z,1.70
2023-03-06T18:48:58.384Z,1.90
2023-03-06T18:51:43.421Z,2.03
2023-03-06T18:54:29.639Z,1.80
2023-03-06T18:57:14.956Z,1.80
2023-03-06T19:00:00.169Z,1.73
2023-03-06T19:02:45.263Z,1.73
2023-03-06T19:05:30.837Z,1.90
2023-03-06T19:08:17.757Z,1.80
2023-03-06T19:11:08.155Z,1.80
2023-03-06T19:13:53.768Z,2.00
2023-03-06T19:16:38.749Z,1.90
2023-03-06T19:19:29.115Z,1.70
2023-03-06T19:22:14.262Z,1.87
2023-03-06T19:24:59.543Z,2.00
2023-03-06T19:27:47.397Z,1.77
2023-03-06T19:30:32.387Z,2.20
2023-03-06T19:33:17.985Z,1.70
2023-03-06T19:36:04.962Z,1.87
2023-03-06T19:38:54.562Z,1.90
2023-03-06T19:41:39.466Z,1.73
2023-03-06T19:44:24.363Z,1.70
2023-03-06T19:47:09.418Z,1.63
2023-03-06T19:49:54.313Z,1.73
2023-03-06T19:52:39.801Z,1.87
2023-03-06T19:55:26.343Z,1.90
2023-03-06T19:58:11.401Z,2.33
2023-03-06T20:01:05.927Z,2.10
2023-03-06T20:03:58.340Z,1.97
2023-03-06T20:06:45.404Z,1.90
2023-03-06T20:09:32.793Z,2.00
2023-03-06T20:12:18.009Z,1.90
2023-03-06T20:15:03.602Z,1.90
2023-03-06T20:17:48.584Z,1.90
2023-03-06T20:20:34.156Z,2.00
2023-03-06T20:23:19.452Z,2.70
2023-03-06T20:26:07.101Z,1.77
2023-03-06T20:28:52.359Z,1.97
2023-03-06T20:31:37.726Z,2.30
2023-03-06T20:34:24.126Z,2.30
2023-03-06T20:37:10.082Z,1.90
2023-03-06T20:39:55.299Z,1.80
2023-03-06T20:42:40.153Z,1.77
2023-03-06T20:45:25.120Z,1.53
2023-03-06T20:48:10.079Z,1.80
2023-03-06T20:51:20.181Z,1.80
2023-03-06T20:54:11.486Z,1.90
2023-03-06T20:56:56.661Z,2.13
2023-03-06T20:59:42.195Z,1.90
2023-03-06T21:02:27.574Z,1.80
2023-03-06T21:05:12.880Z,1.40
2023-03-06T21:07:57.990Z,1.80
2023-03-06T21:10:45.464Z,1.80
2023-03-06T21:13:30.771Z,1.63
2023-03-06T21:16:19.449Z,1.50
2023-03-06T21:19:05.233Z,1.63
2023-03-06T21:21:50.799Z,1.90
2023-03-06T21:24:35.912Z,1.83
2023-03-06T21:27:20.811Z,1.97
2023-03-06T21:30:06.851Z,1.83
2023-03-06T21:32:52.520Z,1.80
2023-03-06T21:35:39.000Z,2.10
2023-03-06T21:38:23.960Z,1.77
2023-03-06T21:41:11.709Z,1.90
2023-03-06T21:43:59.256Z,1.90
2023-03-06T21:46:44.018Z,2.00
2023-03-06T21:49:29.487Z,1.70
2023-03-06T21:52:14.511Z,1.83
2023-03-06T21:54:59.914Z,1.80
2023-03-06T21:57:52.705Z,1.57
2023-03-06T22:00:38.652Z,1.80
2023-03-06T22:03:24.210Z,1.73
2023-03-06T22:06:21.804Z,1.80
2023-03-06T22:09:07.240Z,1.53
2023-03-06T22:11:52.158Z,1.60
2023-03-06T22:14:37.174Z,1.67
2023-03-06T22:17:22.608Z,1.50
2023-03-06T22:20:08.460Z,1.70
2023-03-06T22:22:53.902Z,2.33
2023-03-06T22:25:38.872Z,1.80
2023-03-06T22:28:23.836Z,1.87
2023-03-06T22:31:23.776Z,1.83
2023-03-06T22:34:09.593Z,2.10
2023-03-06T22:36:54.719Z,1.50
2023-03-06T22:39:39.511Z,1.63
2023-03-06T22:42:24.504Z,1.80
2023-03-06T22:45:10.042Z,1.80
2023-03-06T22:48:05.609Z,1.67
2023-03-06T22:50:55.388Z,1.60
2023-03-06T22:53:40.851Z,1.67
2023-03-06T22:56:25.879Z,1.60
2023-03-06T22:59:11.081Z,1.83
2023-03-06T23:01:55.904Z,1.93
2023-03-06T23:04:41.068Z,1.83
2023-03-06T23:07:26.146Z,1.80
2023-03-06T23:10:19.881Z,1.40
2023-03-06T23:13:24.040Z,1.80
2023-03-06T23:16:28.130Z,1.90
2023-03-06T23:19:32.076Z,1.80
2023-03-06T23:22:36.198Z,1.70
2023-03-06T23:25:39.956Z,1.87
2023-03-06T23:28:26.022Z,1.90
2023-03-06T23:31:17.104Z,1.57
2023-03-06T23:34:03.102Z,1.80
2023-03-06T23:36:48.510Z,1.77
2023-03-06T23:39:33.655Z,1.90
2023-03-06T23:42:19.925Z,1.70
2023-03-06T23:45:05.492Z,2.00
2023-03-06T23:47:50.336Z,1.70
2023-03-06T23:50:39.453Z,1.90
2023-03-06T23:53:25.329Z,1.97
2023-03-06T23:56:11.293Z,1.90
2023-03-06T23:58:56.464Z,1.70
